createdAt,value
2019-04-07T00:01:17.497Z,34.35
2019-04-07T00:03:45.561Z,32.45
2019-04-07T00:06:13.633Z,34.08
2019-04-07T00:08:42.196Z,33.65
2019-04-07T00:11:10.623Z,34.23
2019-04-07T00:13:38.703Z,34.48
2019-04-07T00:16:07.205Z,35.55
2019-04-07T00:18:35.744Z,34.67
2019-04-07T00:21:03.987Z,34.78
2019-04-07T00:23:32.071Z,33.95
2019-04-07T00:26:00.230Z,35.75
2019-04-07T00:28:28.305Z,35.33
2019-04-07T00:30:56.369Z,35.30
2019-04-07T00:33:25.525Z,34.67
2019-04-07T00:35:53.616Z,35.95
2019-04-07T00:38:21.682Z,36.15
2019-04-07T00:40:50.272Z,35.55
2019-04-07T00:43:18.787Z,34.18
2019-04-07T00:45:47.046Z,34.75
2019-04-07T00:48:15.687Z,34.58
2019-04-07T00:50:43.791Z,35.48
2019-04-07T00:53:11.876Z,36.40
2019-04-07T00:55:39.910Z,36.25
2019-04-07T00:58:08.297Z,35.35
2019-04-07T01:00:38.764Z,35.75
2019-04-07T01:03:07.298Z,35.10
2019-04-07T01:05:38.908Z,35.40
2019-04-07T01:08:05.514Z,34.98
2019-04-07T01:10:33.827Z,35.43
2019-04-07T01:13:01.881Z,35.88
2019-04-07T01:15:30.536Z,35.88
2019-04-07T01:17:58.807Z,36.05
2019-04-07T01:20:26.935Z,36.93
2019-04-07T01:22:55.268Z,35.92
2019-04-07T01:25:23.487Z,35.80
2019-04-07T01:27:52.104Z,35.60
2019-04-07T01:30:20.163Z,35.48
2019-04-07T01:32:48.323Z,33.92
2019-04-07T01:35:16.835Z,35.73
2019-04-07T01:37:44.965Z,36.95
2019-04-07T01:40:13.493Z,36.05
2019-04-07T01:43:01.021Z,36.17
2019-04-07T01:45:53.619Z,37.03
2019-04-07T01:48:34.661Z,35.35
2019-04-07T01:51:40.100Z,37.00
2019-04-07T01:54:29.818Z,35.65
2019-04-07T01:57:05.813Z,36.75
2019-04-07T01:59:50.971Z,36.45
2019-04-07T02:02:36.695Z,35.80
2019-04-07T02:05:36.398Z,34.92
2019-04-07T02:08:11.173Z,34.38
2019-04-07T02:10:53.199Z,34.85
2019-04-07T02:13:40.469Z,33.13
2019-04-07T02:16:31.233Z,36.35
2019-04-07T02:19:21.614Z,34.20
2019-04-07T02:22:12.543Z,36.17
2019-04-07T02:24:46.360Z,34.15
2019-04-07T02:27:33.431Z,34.15
2019-04-07T02:30:35.664Z,34.67
2019-04-07T02:33:28.838Z,35.88
2019-04-07T02:36:23.911Z,33.75
2019-04-07T02:39:07.431Z,35.10
2019-04-07T02:42:04.529Z,34.00
2019-04-07T02:44:50.835Z,35.13
2019-04-07T02:47:37.431Z,35.55
2019-04-07T02:50:27.321Z,32.48
2019-04-07T02:53:13.494Z,32.42
2019-04-07T02:55:56.797Z,33.30
2019-04-07T02:58:47.631Z,33.98
2019-04-07T03:01:39.244Z,33.65
2019-04-07T03:04:31.035Z,34.13
2019-04-07T03:07:17.895Z,33.92
2019-04-07T03:09:55.283Z,33.55
2019-04-07T03:12:54.178Z,33.92
2019-04-07T03:15:46.770Z,33.10
2019-04-07T03:18:34.323Z,34.13
2019-04-07T03:21:21.221Z,35.38
2019-04-07T03:24:08.032Z,33.60
2019-04-07T03:27:10.182Z,31.42
2019-04-07T03:29:53.461Z,32.42
2019-04-07T03:32:43.266Z,32.30
2019-04-07T03:35:38.527Z,34.18
2019-04-07T03:38:27.285Z,34.03
2019-04-07T03:41:12.616Z,33.90
2019-04-07T03:44:03.258Z,33.60
2019-04-07T03:46:49.343Z,33.42
2019-04-07T03:49:23.489Z,35.17
2019-04-07T03:52:01.989Z,34.58
2019-04-07T03:54:48.388Z,34.03
2019-04-07T03:57:34.267Z,34.70
2019-04-07T04:00:21.491Z,33.23
2019-04-07T04:03:04.824Z,33.10
2019-04-07T04:05:57.417Z,34.45
2019-04-07T04:08:43.139Z,33.98
2019-04-07T04:11:17.061Z,35.88
2019-04-07T04:13:56.119Z,33.58
2019-04-07T04:16:38.955Z,34.58
2019-04-07T04:19:07.017Z,32.85
2019-04-07T04:21:36.220Z,34.23
2019-04-07T04:24:04.536Z,33.42
2019-04-07T04:26:32.575Z,32.23
2019-04-07T04:29:02.446Z,35.98
2019-04-07T04:31:30.386Z,34.03
2019-04-07T04:33:58.410Z,34.38
2019-04-07T04:36:27.260Z,32.28
2019-04-07T04:38:55.587Z,33.78
2019-04-07T04:41:23.645Z,33.78
2019-04-07T04:43:51.676Z,35.28
2019-04-07T04:46:19.733Z,34.10
2019-04-07T04:48:47.734Z,35.70
2019-04-07T04:51:16.343Z,35.52
2019-04-07T04:53:45.534Z,33.78
2019-04-07T04:56:14.568Z,35.17
2019-04-07T04:58:42.650Z,32.95
2019-04-07T05:01:10.714Z,34.18
2019-04-07T05:03:38.934Z,33.98
2019-04-07T05:06:10.249Z,36.08
2019-04-07T05:08:39.166Z,33.95
2019-04-07T05:11:07.848Z,32.60
2019-04-07T05:13:36.018Z,32.98
2019-04-07T05:16:04.047Z,32.67
2019-04-07T05:18:32.418Z,33.50
2019-04-07T05:21:03.279Z,33.05
2019-04-07T05:23:31.757Z,32.88
2019-04-07T05:26:00.413Z,32.78
2019-04-07T05:28:28.679Z,33.88
2019-04-07T05:30:57.972Z,33.35
2019-04-07T05:33:26.676Z,31.93
2019-04-07T05:35:54.883Z,32.15
2019-04-07T05:38:23.983Z,30.77
2019-04-07T05:40:52.147Z,30.95
2019-04-07T05:43:20.159Z,32.88
2019-04-07T05:45:48.824Z,32.15
2019-04-07T05:48:19.558Z,32.17
2019-04-07T05:50:47.291Z,31.02
2019-04-07T05:53:15.908Z,31.87
2019-04-07T05:55:43.945Z,31.40
2019-04-07T05:58:14.755Z,30.45
2019-04-07T06:00:45.821Z,30.57
2019-04-07T06:03:12.221Z,29.57
2019-04-07T06:05:40.946Z,29.10
2019-04-07T06:08:22.377Z,28.15
2019-04-07T06:10:39.190Z,29.50
2019-04-07T06:13:07.283Z,29.18
2019-04-07T06:15:35.730Z,31.52
2019-04-07T06:18:04.097Z,29.37
2019-04-07T06:20:32.353Z,28.38
2019-04-07T06:23:00.416Z,28.65
2019-04-07T06:25:33.106Z,28.38
2019-04-07T06:27:58.870Z,29.48
2019-04-07T06:30:30.104Z,28.77
2019-04-07T06:32:57.048Z,28.65
2019-04-07T06:35:25.113Z,29.27
2019-04-07T06:37:54.093Z,28.42
2019-04-07T06:40:23.163Z,27.82
2019-04-07T06:42:51.182Z,30.27
2019-04-07T06:45:23.368Z,33.30
2019-04-07T06:47:55.227Z,31.15
2019-04-07T06:50:48.591Z,31.50
2019-04-07T06:53:32.655Z,31.37
2019-04-07T06:56:13.084Z,31.55
2019-04-07T06:59:13.886Z,31.55
2019-04-07T07:01:59.053Z,32.13
2019-04-07T07:04:57.216Z,31.12
2019-04-07T07:07:59.673Z,30.97
2019-04-07T07:10:37.778Z,30.43
2019-04-07T07:13:36.889Z,29.15
2019-04-07T07:16:16.947Z,30.80
2019-04-07T07:18:56.828Z,31.17
2019-04-07T07:21:42.647Z,29.60
2019-04-07T07:24:11.768Z,29.45
2019-04-07T07:26:40.814Z,30.72
2019-04-07T07:29:09.336Z,29.52
2019-04-07T07:31:37.948Z,29.87
2019-04-07T07:34:09.350Z,29.85
2019-04-07T07:36:36.107Z,27.58
2019-04-07T07:39:10.235Z,28.90
2019-04-07T07:41:39.750Z,24.90
2019-04-07T07:44:09.492Z,27.10
2019-04-07T07:46:37.767Z,25.30
2019-04-07T07:49:06.078Z,26.55
2019-04-07T07:51:35.495Z,26.37
2019-04-07T07:54:04.655Z,24.70
2019-04-07T07:56:32.783Z,25.60
2019-04-07T07:59:01.787Z,25.77
2019-04-07T08:01:31.077Z,26.62
2019-04-07T08:03:59.740Z,27.30
2019-04-07T08:06:28.058Z,27.67
2019-04-07T08:09:07.441Z,29.35
2019-04-07T08:11:25.924Z,27.37
2019-04-07T08:13:55.303Z,27.85
2019-04-07T08:16:23.921Z,27.32
2019-04-07T08:18:52.170Z,23.90
2019-04-07T08:21:20.681Z,27.70
2019-04-07T08:23:49.179Z,27.93
2019-04-07T08:26:18.233Z,26.17
2019-04-07T08:28:46.633Z,26.17
2019-04-07T08:31:17.798Z,25.95
2019-04-07T08:33:50.370Z,25.25
2019-04-07T08:36:17.276Z,27.82
2019-04-07T08:38:45.586Z,26.42
2019-04-07T08:41:16.417Z,28.15
2019-04-07T08:43:43.587Z,24.72
2019-04-07T08:46:12.048Z,24.32
2019-04-07T08:48:40.242Z,25.32
2019-04-07T08:51:08.613Z,23.25
2019-04-07T08:53:36.815Z,24.20
2019-04-07T08:56:06.858Z,24.15
2019-04-07T08:58:38.471Z,26.45
2019-04-07T09:01:05.305Z,26.97
2019-04-07T09:03:33.456Z,26.50
2019-04-07T09:06:01.476Z,27.30
2019-04-07T09:08:29.606Z,26.48
2019-04-07T09:11:03.204Z,26.07
2019-04-07T09:13:33.737Z,25.52
2019-04-07T09:16:23.552Z,24.98
2019-04-07T09:19:09.427Z,25.57
2019-04-07T09:22:02.985Z,26.25
2019-04-07T09:24:49.828Z,25.43
2019-04-07T09:27:43.234Z,25.17
2019-04-07T09:30:30.787Z,25.75
2019-04-07T09:33:13.689Z,25.32
2019-04-07T09:35:59.339Z,26.87
2019-04-07T09:38:38.714Z,26.70
2019-04-07T09:41:35.312Z,26.30
2019-04-07T09:44:11.409Z,27.48
2019-04-07T09:47:02.042Z,28.87
2019-04-07T09:49:48.167Z,28.57
2019-04-07T09:52:39.643Z,27.93
2019-04-07T09:55:33.235Z,25.10
2019-04-07T09:58:26.325Z,24.85
2019-04-07T10:01:05.807Z,25.45
2019-04-07T10:03:40.592Z,25.20
2019-04-07T10:06:25.867Z,25.12
2019-04-07T10:09:11.395Z,23.12
2019-04-07T10:11:49.543Z,22.52
2019-04-07T10:14:28.586Z,24.12
2019-04-07T10:17:18.180Z,23.27
2019-04-07T10:20:05.181Z,22.45
2019-04-07T10:22:58.094Z,22.02
2019-04-07T10:25:44.448Z,21.12
2019-04-07T10:28:29.812Z,22.85
2019-04-07T10:31:18.742Z,24.05
2019-04-07T10:34:08.081Z,23.57
2019-04-07T10:36:51.473Z,22.62
2019-04-07T10:39:31.954Z,22.98
2019-04-07T10:42:18.046Z,23.20
2019-04-07T10:44:53.747Z,22.42
2019-04-07T10:47:43.633Z,25.15
2019-04-07T10:50:36.810Z,26.37
2019-04-07T10:53:31.306Z,27.37
2019-04-07T10:56:18.789Z,25.27
2019-04-07T10:58:59.388Z,25.80
2019-04-07T11:01:49.113Z,25.37
2019-04-07T11:04:34.065Z,23.92
2019-04-07T11:07:19.059Z,23.98
2019-04-07T11:10:14.011Z,24.82
2019-04-07T11:13:01.810Z,23.20
2019-04-07T11:15:45.034Z,23.15
2019-04-07T11:18:44.921Z,22.60
2019-04-07T11:21:34.979Z,22.25
2019-04-07T11:24:22.073Z,20.08
2019-04-07T11:27:08.120Z,20.15
2019-04-07T11:29:58.430Z,19.37
2019-04-07T11:32:50.775Z,19.30
2019-04-07T11:35:37.588Z,18.73
2019-04-07T11:38:27.771Z,18.30
2019-04-07T11:41:13.845Z,18.17
2019-04-07T11:43:50.767Z,18.65
2019-04-07T11:46:44.244Z,17.37
2019-04-07T11:49:38.022Z,15.95
2019-04-07T11:52:15.657Z,17.17
2019-04-07T11:55:00.913Z,16.82
2019-04-07T11:57:43.260Z,15.80
2019-04-07T12:00:19.505Z,17.60
2019-04-07T12:03:07.169Z,15.98
2019-04-07T12:05:44.195Z,17.00
2019-04-07T12:08:40.494Z,17.17
2019-04-07T12:11:25.007Z,15.23
2019-04-07T12:14:16.241Z,16.42
2019-04-07T12:17:05.804Z,16.10
2019-04-07T12:19:39.823Z,14.83
2019-04-07T12:22:14.590Z,14.53
2019-04-07T12:25:06.696Z,14.85
2019-04-07T12:27:50.526Z,15.60
2019-04-07T12:30:31.595Z,13.62
2019-04-07T12:33:23.200Z,13.05
2019-04-07T12:36:07.222Z,12.40
2019-04-07T12:39:00.182Z,15.13
2019-04-07T12:41:44.795Z,13.75
2019-04-07T12:44:41.756Z,13.83
2019-04-07T12:47:26.558Z,12.53
2019-04-07T12:50:15.454Z,12.58
2019-04-07T12:53:19.719Z,13.83
2019-04-07T12:56:13.295Z,13.95
2019-04-07T12:59:14.310Z,13.78
2019-04-07T13:02:06.568Z,13.72
2019-04-07T13:04:41.812Z,14.28
2019-04-07T13:07:24.719Z,14.40
2019-04-07T13:10:11.539Z,13.08
2019-04-07T13:12:55.680Z,13.65
2019-04-07T13:15:45.557Z,12.63
2019-04-07T13:18:26.399Z,11.43
2019-04-07T13:21:13.412Z,12.82
2019-04-07T13:23:59.337Z,12.75
2019-04-07T13:26:49.905Z,13.80
2019-04-07T13:29:25.140Z,13.58
2019-04-07T13:32:15.017Z,12.85
2019-04-07T13:35:16.931Z,12.30
2019-04-07T13:37:53.390Z,12.40
2019-04-07T13:40:30.694Z,12.13
2019-04-07T13:43:21.112Z,11.75
2019-04-07T13:46:27.610Z,12.50
2019-04-07T13:49:07.618Z,10.93
2019-04-07T13:51:47.742Z,13.03
2019-04-07T13:54:34.137Z,11.97
2019-04-07T13:57:25.880Z,11.30
2019-04-07T14:00:23.264Z,11.70
2019-04-07T14:03:10.137Z,12.15
2019-04-07T14:06:00.059Z,12.45
2019-04-07T14:08:57.561Z,12.23
2019-04-07T14:11:58.242Z,12.98
2019-04-07T14:14:31.431Z,12.35
2019-04-07T14:17:18.375Z,12.35
2019-04-07T14:20:14.933Z,12.25
2019-04-07T14:23:00.996Z,11.50
2019-04-07T14:25:47.456Z,12.50
2019-04-07T14:28:24.591Z,12.15
2019-04-07T14:31:09.417Z,11.88
2019-04-07T14:34:02.142Z,12.20
2019-04-07T14:36:54.958Z,12.03
2019-04-07T14:39:44.436Z,11.60
2019-04-07T14:42:21.361Z,12.23
2019-04-07T14:45:07.792Z,12.33
2019-04-07T14:48:13.019Z,11.85
2019-04-07T14:50:58.113Z,10.48
2019-04-07T14:53:42.036Z,11.65
2019-04-07T14:56:40.704Z,11.97
2019-04-07T14:59:30.677Z,11.75
2019-04-07T15:02:01.732Z,11.80
2019-04-07T15:05:00.220Z,12.07
2019-04-07T15:07:47.062Z,11.88
2019-04-07T15:10:34.124Z,11.30
2019-04-07T15:13:05.345Z,11.22
2019-04-07T15:15:33.547Z,12.07
2019-04-07T15:18:01.569Z,11.57
2019-04-07T15:20:30.324Z,10.80
2019-04-07T15:23:00.243Z,10.72
2019-04-07T15:25:29.684Z,11.40
2019-04-07T15:27:59.867Z,11.83
2019-04-07T15:30:27.711Z,11.95
2019-04-07T15:32:58.616Z,11.08
2019-04-07T15:35:26.428Z,11.50
2019-04-07T15:37:55.029Z,12.30
2019-04-07T15:40:23.487Z,11.97
2019-04-07T15:42:52.511Z,12.13
2019-04-07T15:45:21.609Z,12.18
2019-04-07T15:48:08.409Z,12.20
2019-04-07T15:50:36.452Z,12.18
2019-04-07T15:53:04.520Z,12.30
2019-04-07T15:55:45.763Z,12.03
2019-04-07T15:58:03.086Z,12.70
2019-04-07T16:00:33.840Z,12.40
2019-04-07T16:03:01.314Z,12.30
2019-04-07T16:05:30.310Z,12.40
2019-04-07T16:07:59.185Z,12.82
2019-04-07T16:10:28.016Z,12.90
2019-04-07T16:12:58.979Z,13.08
2019-04-07T16:15:26.208Z,13.45
2019-04-07T16:17:54.303Z,13.65
2019-04-07T16:20:25.123Z,14.60
2019-04-07T16:22:52.773Z,15.85
2019-04-07T16:25:26.207Z,16.50
2019-04-07T16:27:51.121Z,15.65
2019-04-07T16:30:20.353Z,14.90
2019-04-07T16:32:48.719Z,14.47
2019-04-07T16:35:17.162Z,14.70
2019-04-07T16:37:45.767Z,14.87
2019-04-07T16:40:14.230Z,14.38
2019-04-07T16:42:45.612Z,16.25
2019-04-07T16:45:16.457Z,15.78
2019-04-07T16:47:42.281Z,15.78
2019-04-07T16:50:11.123Z,15.80
2019-04-07T16:52:39.818Z,16.50
2019-04-07T16:55:09.367Z,15.72
2019-04-07T16:57:37.637Z,15.43
2019-04-07T17:00:05.711Z,14.85
2019-04-07T17:02:33.911Z,14.95
2019-04-07T17:05:01.942Z,14.40
2019-04-07T17:07:29.979Z,14.60
2019-04-07T17:09:58.621Z,13.98
2019-04-07T17:12:27.020Z,15.00
2019-04-07T17:14:55.315Z,14.05
2019-04-07T17:17:23.377Z,14.55
2019-04-07T17:19:51.392Z,14.00
2019-04-07T17:22:19.762Z,13.90
2019-04-07T17:24:47.912Z,13.48
2019-04-07T17:27:16.144Z,14.30
2019-04-07T17:29:44.248Z,13.53
2019-04-07T17:32:13.321Z,13.45
2019-04-07T17:34:42.084Z,13.20
2019-04-07T17:37:11.763Z,13.95
2019-04-07T17:39:49.406Z,13.65
2019-04-07T17:42:20.095Z,13.55
2019-04-07T17:45:06.392Z,13.35
2019-04-07T17:48:05.575Z,13.45
2019-04-07T17:50:55.284Z,12.70
2019-04-07T17:53:45.343Z,13.25
2019-04-07T17:56:24.172Z,14.60
2019-04-07T17:59:14.277Z,14.53
2019-04-07T18:02:00.421Z,14.75
2019-04-07T18:04:51.843Z,14.10
2019-04-07T18:07:36.152Z,15.25
2019-04-07T18:10:23.789Z,15.08
2019-04-07T18:13:10.868Z,14.80
2019-04-07T18:16:01.011Z,15.05
2019-04-07T18:18:36.666Z,15.45
2019-04-07T18:21:28.560Z,14.65
2019-04-07T18:24:18.152Z,15.65
2019-04-07T18:27:01.618Z,15.90
2019-04-07T18:30:03.594Z,15.28
2019-04-07T18:32:53.550Z,16.00
2019-04-07T18:35:37.739Z,15.48
2019-04-07T18:38:24.075Z,15.50
2019-04-07T18:41:10.110Z,15.98
2019-04-07T18:44:04.691Z,14.78
2019-04-07T18:46:50.185Z,15.03
2019-04-07T18:49:36.505Z,15.00
2019-04-07T18:52:23.046Z,14.75
2019-04-07T18:55:10.192Z,13.85
2019-04-07T18:58:03.907Z,13.32
2019-04-07T19:00:57.476Z,13.83
2019-04-07T19:03:53.298Z,13.60
2019-04-07T19:06:32.074Z,13.65
2019-04-07T19:09:17.806Z,13.13
2019-04-07T19:12:06.518Z,12.82
2019-04-07T19:14:56.185Z,13.20
2019-04-07T19:17:38.411Z,13.85
2019-04-07T19:20:20.983Z,13.68
2019-04-07T19:23:02.398Z,12.63
2019-04-07T19:25:41.945Z,12.95
2019-04-07T19:28:43.639Z,12.70
2019-04-07T19:31:36.352Z,12.80
2019-04-07T19:34:23.691Z,12.53
2019-04-07T19:37:08.158Z,12.07
2019-04-07T19:39:56.497Z,12.37
2019-04-07T19:42:42.898Z,13.43
2019-04-07T19:45:33.736Z,12.85
2019-04-07T19:48:19.051Z,12.50
2019-04-07T19:51:04.299Z,12.03
2019-04-07T19:53:51.471Z,11.85
2019-04-07T19:56:37.197Z,12.50
2019-04-07T19:59:24.046Z,12.43
2019-04-07T20:02:11.636Z,12.10
2019-04-07T20:04:52.483Z,12.23
2019-04-07T20:07:38.422Z,12.55
2019-04-07T20:10:16.002Z,11.63
2019-04-07T20:13:11.124Z,12.43
2019-04-07T20:16:00.473Z,11.97
2019-04-07T20:19:00.752Z,12.68
2019-04-07T20:22:00.389Z,12.03
2019-04-07T20:24:38.280Z,11.53
2019-04-07T20:27:37.580Z,11.28
2019-04-07T20:30:23.369Z,11.88
2019-04-07T20:33:16.401Z,11.70
2019-04-07T20:36:02.345Z,12.07
2019-04-07T20:39:07.709Z,11.83
2019-04-07T20:41:43.152Z,11.48
2019-04-07T20:44:36.573Z,11.50
2019-04-07T20:47:27.511Z,11.70
2019-04-07T20:50:18.031Z,11.30
2019-04-07T20:53:16.461Z,11.70
2019-04-07T20:56:09.341Z,11.73
2019-04-07T20:59:04.604Z,10.98
2019-04-07T21:02:01.512Z,11.85
2019-04-07T21:04:32.081Z,11.28
2019-04-07T21:07:16.706Z,11.65
2019-04-07T21:09:53.546Z,11.35
2019-04-07T21:12:55.382Z,10.40
2019-04-07T21:15:43.157Z,11.38
2019-04-07T21:18:31.564Z,11.08
2019-04-07T21:21:22.145Z,10.23
2019-04-07T21:24:07.821Z,10.32
2019-04-07T21:26:48.029Z,10.35
2019-04-07T21:29:30.215Z,10.43
2019-04-07T21:32:26.897Z,10.72
2019-04-07T21:35:05.331Z,10.13
2019-04-07T21:37:53.014Z,10.32
2019-04-07T21:40:44.837Z,9.85
2019-04-07T21:43:31.930Z,9.78
2019-04-07T21:46:11.097Z,9.50
2019-04-07T21:48:51.112Z,10.35
2019-04-07T21:51:28.975Z,10.35
2019-04-07T21:54:03.002Z,10.35
2019-04-07T21:56:48.965Z,10.35
2019-04-07T21:59:41.887Z,10.32
2019-04-07T22:02:33.986Z,11.30
2019-04-07T22:05:19.950Z,10.38
2019-04-07T22:08:16.020Z,9.85
2019-04-07T22:10:42.793Z,11.10
2019-04-07T22:13:11.009Z,10.95
2019-04-07T22:15:45.915Z,10.70
2019-04-07T22:18:09.944Z,11.00
2019-04-07T22:20:38.897Z,10.80
2019-04-07T22:23:09.574Z,10.65
2019-04-07T22:25:38.362Z,10.55
2019-04-07T22:28:07.600Z,10.82
2019-04-07T22:30:39.257Z,10.70
2019-04-07T22:33:06.174Z,10.85
2019-04-07T22:35:37.892Z,10.70
2019-04-07T22:38:05.159Z,11.00
2019-04-07T22:40:36.457Z,10.55
2019-04-07T22:43:03.713Z,10.90
2019-04-07T22:45:32.463Z,11.12
2019-04-07T22:48:01.347Z,10.93
2019-04-07T22:50:30.435Z,10.82
2019-04-07T22:52:59.607Z,11.03
2019-04-07T22:55:27.662Z,10.45
2019-04-07T22:57:55.831Z,10.95
2019-04-07T23:00:26.787Z,10.80
2019-04-07T23:02:55.344Z,10.18
2019-04-07T23:05:24.417Z,10.23
2019-04-07T23:07:53.138Z,10.98
2019-04-07T23:10:21.258Z,10.23
2019-04-07T23:12:49.857Z,10.40
2019-04-07T23:15:18.729Z,10.20
2019-04-07T23:17:47.246Z,10.63
2019-04-07T23:20:15.448Z,9.93
2019-04-07T23:22:44.504Z,10.70
2019-04-07T23:25:12.654Z,10.75
2019-04-07T23:27:41.601Z,10.25
2019-04-07T23:30:09.685Z,10.15
2019-04-07T23:32:38.423Z,10.68
2019-04-07T23:35:06.468Z,10.75
2019-04-07T23:37:34.888Z,10.00
2019-04-07T23:40:03.000Z,11.00
2019-04-07T23:42:31.038Z,10.48
2019-04-07T23:44:59.067Z,9.70
2019-04-07T23:47:27.145Z,10.43
2019-04-07T23:49:55.251Z,10.48
2019-04-07T23:52:23.305Z,10.23
2019-04-07T23:54:52.444Z,10.45
2019-04-07T23:57:20.526Z,10.05
2019-04-07T23:59:48.649Z,10.45
